Tropical Cyclones
[Index]
Main Index Home Page Stock Weather Photos Extreme Storms Discussion Storm News and Storm Chasing Reports Tropical Cyclones / Hurricanes / Typhoons Weather Data and Links Wild Fires / Bushfires Weather Observation Techniques Weather Picture Catalogue Tornado Pictures and Reports Stock Video Footage and DVDs for sale
Season 2010-2011 Tropical Cyclone CHERONO Track Map
Season 2010-2011 Summaries: [BoM-AU] [JTWC-AU] [JTWC-SIO] [JTWC-SPAC] [JTWC-SH]
<<- Previous TC | JTWC 2010-2011 Season | Next TC ->>

click for intensity scale information  Lat/long Grid: Show Hide

 Date Labels: Show Hide

Joint Typhoon Warning Centre Cyclone Data

Name: CHERONO

14 Mar 2011 00:00 UTC to 23 Mar 2011 00:00 UTC

    date/time    lat    long     hPa   cat  kts
2011-03-14 00   11.3    87.7    1007         20          
2011-03-14 06   11.5    87.1    1007         20          
2011-03-14 12   11.7    86.5    1007         20          
2011-03-14 18   12.0    85.8    1004         25          
2011-03-15 00   12.5    85.3    1004         25          
2011-03-15 06   13.0    84.5    1004         25          
2011-03-15 12   13.1    83.7    1000         30          
2011-03-15 18   13.1    82.9    1004         25          
2011-03-16 00   12.8    81.7    1000         30          
2011-03-16 06   13.0    81.2    1000         30          
2011-03-16 12   14.1    80.9    1000         30          
2011-03-16 18   14.5    79.3    1000         30          
2011-03-17 00   14.6    77.8    1000         30          
2011-03-17 06   14.8    76.3     996         35          
2011-03-17 12   15.3    75.1     993    1    40          
2011-03-17 18   15.7    74.3     989    1    45          
2011-03-18 00   16.1    73.4     989    1    45          
2011-03-18 06   16.5    72.3     989    1    45          
2011-03-18 12   17.0    71.1     989    1    45          
2011-03-18 18   17.7    70.0     989    1    45          
2011-03-19 00   18.4    68.9     989    1    45          
2011-03-19 06   19.1    67.5     993    1    40          
2011-03-19 12   19.5    65.9     996         35          
2011-03-19 18   19.7    64.2     996         35          
2011-03-20 00   20.3    62.6    1000         30          
2011-03-20 06   21.0    61.5    1000         30          
2011-03-20 12   21.7    60.5    1000         30          
2011-03-20 18   22.2    59.6    1000         30          
2011-03-21 00   22.8    58.8    1000         30          
2011-03-21 06   23.1    58.1    1000         30          
2011-03-21 12   23.6    57.6    1000         30          
2011-03-21 18   24.3    57.4    1000         30          
2011-03-22 00   24.9    57.2    1000         30          
2011-03-22 06   25.6    57.0    1000         30          
2011-03-22 12   26.7    57.2    1000         30          
2011-03-22 18   27.6    58.2    1000         30          
2011-03-23 00   27.5    59.6    1004         25          
Winds are 1-min average.

Tropical cyclone tracks developed by Michael Bath using data from the Joint Typhoon Warning Centre Best Tracks and Google Maps.


[Australian Severe Weather index] [Copyright Notice] [Email Contacts] [Search This Site] [Privacy Policy]
Document: tropical_cyclone_cherono.htm Updated: 28 June 2017